Time;durP1;ratioP1;P1;durP2;ratioP2;P2;SDS_P1;SDS_P2;PMS_P1;PMS_P2;Temp;Humidity;BMP_temperature;BMP_pressure;BME280_temperature;BME280_humidity;BME280_pressure;Samples;Min_cycle;Max_cycle;Signal;HPM_P1;HPM_P2
2023/05/31 00:02:00;;;;;;;;;;;16.50;99.90;;;;;;5070565;28;20265;-66
2023/05/31 00:04:27;;;;;;;;;;;16.50;99.90;;;;;;5071765;28;20463;-64
2023/05/31 00:06:54;;;;;;;;;;;16.60;99.90;;;;;;5072924;28;19913;-66
2023/05/31 00:09:21;;;;;;;;;;;16.70;99.90;;;;;;5062114;28;20042;-63
2023/05/31 00:11:50;;;;;;;;;;;16.80;99.90;;;;;;5073444;28;19915;-65
2023/05/31 00:14:17;;;;;;;;;;;16.90;99.90;;;;;;5053480;28;19916;-64
2023/05/31 00:16:43;;;;;;;;;;;17.00;99.90;;;;;;5054498;28;19916;-65
2023/05/31 00:19:10;;;;;;;;;;;17.10;99.90;;;;;;5068741;28;19951;-64
2023/05/31 00:21:37;;;;;;;;;;;17.20;99.90;;;;;;5074357;28;20339;-63
2023/05/31 00:24:03;;;;;;;;;;;17.30;99.90;;;;;;5063630;28;19913;-64
2023/05/31 00:26:30;;;;;;;;;;;17.40;99.90;;;;;;5060091;28;19920;-62
2023/05/31 00:28:57;;;;;;;;;;;17.50;99.90;;;;;;5056318;28;19920;-63
2023/05/31 00:31:23;;;;;;;;;;;17.50;99.90;;;;;;5067496;28;20266;-61
2023/05/31 00:33:50;;;;;;;;;;;17.60;99.90;;;;;;5063264;28;19925;-61
2023/05/31 00:36:17;;;;;;;;;;;17.70;99.90;;;;;;5056941;28;19959;-62
2023/05/31 00:38:43;;;;;;;;;;;17.70;99.90;;;;;;5055019;28;19909;-62
2023/05/31 00:41:10;;;;;;;;;;;17.80;99.90;;;;;;5054119;28;19913;-62
2023/05/31 00:43:37;;;;;;;;;;;17.80;99.90;;;;;;5062832;28;20042;-64
2023/05/31 00:46:04;;;;;;;;;;;17.90;99.90;;;;;;5061928;28;19920;-64
2023/05/31 00:48:31;;;;;;;;;;;18.00;99.90;;;;;;5066529;28;19995;-63
2023/05/31 00:50:58;;;;;;;;;;;18.00;99.90;;;;;;5053577;28;19959;-62
2023/05/31 00:53:24;;;;;;;;;;;18.10;99.80;;;;;;5053194;28;19916;-62
2023/05/31 00:55:51;;;;;;;;;;;18.20;99.90;;;;;;5067512;28;19936;-64
2023/05/31 00:58:18;;;;;;;;;;;18.30;99.70;;;;;;5073089;28;19919;-64
2023/05/31 01:00:45;;;;;;;;;;;18.40;99.60;;;;;;5073045;28;19909;-62
2023/05/31 01:03:12;;;;;;;;;;;18.50;99.80;;;;;;5057517;28;19970;-63
2023/05/31 01:05:40;;;;;;;;;;;18.80;99.20;;;;;;5053889;28;19913;-63
2023/05/31 01:08:07;;;;;;;;;;;18.80;98.70;;;;;;5065397;28;20366;-63
2023/05/31 01:10:33;;;;;;;;;;;19.00;98.80;;;;;;5073314;28;20503;-62
2023/05/31 01:13:11;;;;;;;;;;;19.00;98.00;;;;;;5073349;28;19963;-63
2023/05/31 01:15:44;;;;;;;;;;;19.00;97.70;;;;;;5072638;28;19915;-63
2023/05/31 01:18:19;;;;;;;;;;;19.00;97.90;;;;;;5072906;28;19919;-62
2023/05/31 01:20:50;;;;;;;;;;;19.10;97.90;;;;;;5072809;28;19916;-64
2023/05/31 01:23:25;;;;;;;;;;;19.30;97.90;;;;;;5073001;28;19915;-64
2023/05/31 01:25:51;;;;;;;;;;;19.40;97.50;;;;;;5072465;28;19915;-63
2023/05/31 01:28:19;;;;;;;;;;;19.50;96.70;;;;;;5073211;28;19912;-64
2023/05/31 01:30:47;;;;;;;;;;;19.50;96.70;;;;;;5072517;28;19966;-61
2023/05/31 01:33:14;;;;;;;;;;;19.70;96.80;;;;;;5072086;28;19916;-64
2023/05/31 01:35:40;;;;;;;;;;;19.80;96.40;;;;;;5072225;28;19912;-62
2023/05/31 01:38:07;;;;;;;;;;;19.90;95.90;;;;;;5072988;28;19968;-61
2023/05/31 01:40:35;;;;;;;;;;;20.00;95.70;;;;;;5072986;28;19962;-63
2023/05/31 01:43:03;;;;;;;;;;;20.10;95.90;;;;;;5072676;28;20353;-64
2023/05/31 01:45:31;;;;;;;;;;;20.20;95.60;;;;;;5072437;28;19977;-63
2023/05/31 01:48:09;;;;;;;;;;;20.30;95.00;;;;;;5072593;28;20559;-63
2023/05/31 01:50:36;;;;;;;;;;;20.50;95.30;;;;;;5072393;28;19915;-67
2023/05/31 01:53:04;;;;;;;;;;;20.90;95.00;;;;;;5072333;28;19974;-65
2023/05/31 01:55:31;;;;;;;;;;;21.20;95.00;;;;;;5071898;28;19908;-64
2023/05/31 01:57:58;;;;;;;;;;;21.40;94.00;;;;;;5072314;28;20615;-62
2023/05/31 02:00:25;;;;;;;;;;;21.40;93.80;;;;;;5072235;28;19958;-62
2023/05/31 02:02:53;;;;;;;;;;;21.30;93.70;;;;;;5087579;28;19916;-62
2023/05/31 02:05:20;;;;;;;;;;;21.20;93.40;;;;;;5071544;28;19955;-62
2023/05/31 02:07:47;;;;;;;;;;;21.10;93.70;;;;;;5069911;28;19912;-63
2023/05/31 02:10:14;;;;;;;;;;;21.00;93.50;;;;;;5070776;28;19931;-64
2023/05/31 02:12:41;;;;;;;;;;;20.90;93.70;;;;;;5055153;28;20016;-64
2023/05/31 02:15:10;;;;;;;;;;;20.80;93.80;;;;;;5070723;28;19912;-63
2023/05/31 02:17:40;;;;;;;;;;;20.80;93.90;;;;;;5072066;28;19913;-62
2023/05/31 02:20:10;;;;;;;;;;;20.70;94.10;;;;;;5072224;28;20284;-64
2023/05/31 02:22:36;;;;;;;;;;;20.70;94.20;;;;;;5059008;28;19913;-63
2023/05/31 02:25:03;;;;;;;;;;;20.70;93.60;;;;;;5050377;28;19917;-62
2023/05/31 02:27:29;;;;;;;;;;;20.60;94.00;;;;;;5050739;28;19909;-63
2023/05/31 02:29:56;;;;;;;;;;;20.50;94.10;;;;;;5051390;28;19913;-61
2023/05/31 02:32:23;;;;;;;;;;;20.50;94.40;;;;;;5052245;28;19920;-62
2023/05/31 02:34:49;;;;;;;;;;;20.60;94.00;;;;;;5052616;28;19963;-64
2023/05/31 02:37:16;;;;;;;;;;;20.70;94.10;;;;;;5051186;28;20001;-62
2023/05/31 02:39:43;;;;;;;;;;;20.60;93.70;;;;;;5051276;28;19916;-62
2023/05/31 02:42:09;;;;;;;;;;;20.50;94.00;;;;;;5052824;28;19915;-62
2023/05/31 02:44:36;;;;;;;;;;;20.40;94.10;;;;;;5051098;28;20030;-63
2023/05/31 02:47:03;;;;;;;;;;;20.30;94.30;;;;;;5051738;28;19999;-62
2023/05/31 02:49:29;;;;;;;;;;;20.30;94.00;;;;;;5051757;28;19909;-62
2023/05/31 02:51:56;;;;;;;;;;;20.30;94.30;;;;;;5054990;28;19925;-63
2023/05/31 02:54:22;;;;;;;;;;;20.50;94.20;;;;;;5051137;28;20258;-62
2023/05/31 02:56:49;;;;;;;;;;;20.60;94.50;;;;;;5051368;28;19915;-61
2023/05/31 02:59:16;;;;;;;;;;;20.90;94.30;;;;;;5051744;28;19908;-64
2023/05/31 03:01:43;;;;;;;;;;;21.20;93.80;;;;;;5057508;28;20368;-65
2023/05/31 03:04:10;;;;;;;;;;;21.50;93.50;;;;;;5064252;28;19909;-64
2023/05/31 03:06:39;;;;;;;;;;;21.70;93.20;;;;;;5061702;28;19916;-64
2023/05/31 03:09:07;;;;;;;;;;;21.90;92.60;;;;;;5050816;28;20449;-64
2023/05/31 03:11:34;;;;;;;;;;;22.10;92.60;;;;;;5060342;28;19913;-65
2023/05/31 03:14:00;;;;;;;;;;;22.10;92.20;;;;;;5068461;28;19921;-63
2023/05/31 03:16:28;;;;;;;;;;;22.00;92.00;;;;;;5057103;28;19916;-62
2023/05/31 03:18:55;;;;;;;;;;;22.10;92.40;;;;;;5056968;28;19912;-63
2023/05/31 03:21:21;;;;;;;;;;;22.10;92.10;;;;;;5060171;28;20368;-62
2023/05/31 03:23:48;;;;;;;;;;;22.30;91.80;;;;;;5057482;28;19909;-62
2023/05/31 03:26:14;;;;;;;;;;;22.40;92.20;;;;;;5070126;28;20286;-61
2023/05/31 03:28:41;;;;;;;;;;;22.80;91.80;;;;;;5067570;28;19920;-62
2023/05/31 03:31:08;;;;;;;;;;;23.00;91.60;;;;;;5068057;28;19909;-63
2023/05/31 03:33:38;;;;;;;;;;;23.20;91.40;;;;;;5064025;28;20049;-67
2023/05/31 03:36:04;;;;;;;;;;;23.70;91.20;;;;;;5066845;28;20004;-64
2023/05/31 03:38:31;;;;;;;;;;;24.60;90.60;;;;;;5051803;28;19908;-64
2023/05/31 03:40:58;;;;;;;;;;;25.70;87.20;;;;;;5054423;28;20333;-64
2023/05/31 03:43:24;;;;;;;;;;;26.20;85.10;;;;;;5068548;28;19931;-64
2023/05/31 03:45:51;;;;;;;;;;;26.70;83.80;;;;;;5056393;28;19909;-64
2023/05/31 03:48:18;;;;;;;;;;;26.80;83.60;;;;;;5065872;28;19919;-64
2023/05/31 03:50:44;;;;;;;;;;;26.90;81.30;;;;;;5069157;28;19908;-64
2023/05/31 03:53:11;;;;;;;;;;;27.00;81.90;;;;;;5067660;28;20377;-64
2023/05/31 03:55:38;;;;;;;;;;;27.30;80.90;;;;;;5072222;28;20361;-65
2023/05/31 03:58:05;;;;;;;;;;;27.50;80.80;;;;;;5073242;28;19962;-65
2023/05/31 04:00:31;;;;;;;;;;;28.00;78.40;;;;;;5073846;28;20420;-64
2023/05/31 04:02:58;;;;;;;;;;;28.30;77.20;;;;;;5073745;28;19955;-63
2023/05/31 04:05:24;;;;;;;;;;;28.30;76.80;;;;;;5063377;28;19913;-63
2023/05/31 04:07:51;;;;;;;;;;;28.40;76.00;;;;;;5055229;28;20384;-62
2023/05/31 04:10:18;;;;;;;;;;;28.60;75.60;;;;;;5053829;28;19909;-63
2023/05/31 04:12:44;;;;;;;;;;;28.20;75.50;;;;;;5053893;28;19917;-64
2023/05/31 04:15:11;;;;;;;;;;;27.30;77.40;;;;;;5052899;28;20011;-63
2023/05/31 04:17:38;;;;;;;;;;;26.60;78.90;;;;;;5056214;28;20381;-63
2023/05/31 04:20:08;;;;;;;;;;;25.80;80.00;;;;;;5073972;28;19979;-63
2023/05/31 04:22:35;;;;;;;;;;;24.90;81.70;;;;;;5073723;28;19947;-63
2023/05/31 04:25:02;;;;;;;;;;;24.10;83.70;;;;;;5071989;28;19913;-64
2023/05/31 04:27:32;;;;;;;;;;;23.50;85.30;;;;;;5072896;28;19948;-64
2023/05/31 04:30:00;;;;;;;;;;;23.00;86.60;;;;;;5053948;28;19917;-64
2023/05/31 04:32:27;;;;;;;;;;;22.80;88.00;;;;;;5063184;28;19912;-62
2023/05/31 04:35:03;;;;;;;;;;;22.60;88.60;;;;;;5068449;28;19917;-63
2023/05/31 04:37:30;;;;;;;;;;;22.50;89.80;;;;;;5060459;28;19909;-63
2023/05/31 04:39:57;;;;;;;;;;;22.30;90.10;;;;;;5058395;28;19920;-63
2023/05/31 04:42:24;;;;;;;;;;;22.20;90.50;;;;;;5066199;28;19912;-63
2023/05/31 04:44:51;;;;;;;;;;;22.10;90.80;;;;;;5055437;28;19909;-64
2023/05/31 04:47:19;;;;;;;;;;;22.10;90.80;;;;;;5074626;28;19908;-62
2023/05/31 04:49:45;;;;;;;;;;;22.20;90.80;;;;;;5071986;28;19908;-64
2023/05/31 04:52:12;;;;;;;;;;;22.10;91.00;;;;;;5071125;28;20309;-64
2023/05/31 04:54:40;;;;;;;;;;;22.00;91.00;;;;;;5063273;28;19916;-64
2023/05/31 04:57:07;;;;;;;;;;;21.90;91.30;;;;;;5071327;28;19909;-64
2023/05/31 04:59:34;;;;;;;;;;;21.80;91.50;;;;;;5071955;28;19908;-64
2023/05/31 05:02:02;;;;;;;;;;;21.70;92.00;;;;;;5071608;28;20380;-64
2023/05/31 05:04:28;;;;;;;;;;;21.50;92.20;;;;;;5070927;28;20030;-65
2023/05/31 05:06:55;;;;;;;;;;;21.40;92.50;;;;;;5070575;28;19919;-65
2023/05/31 05:09:22;;;;;;;;;;;21.40;92.70;;;;;;5071075;28;19978;-64
2023/05/31 05:11:48;;;;;;;;;;;21.40;92.70;;;;;;5067968;28;20047;-65
2023/05/31 05:14:15;;;;;;;;;;;21.40;92.90;;;;;;5050591;28;19955;-65
2023/05/31 05:16:42;;;;;;;;;;;21.40;93.10;;;;;;5049384;28;20324;-66
2023/05/31 05:19:09;;;;;;;;;;;21.40;93.10;;;;;;5053282;28;19966;-66
2023/05/31 05:21:35;;;;;;;;;;;21.30;93.00;;;;;;5057269;28;20342;-66
2023/05/31 05:24:02;;;;;;;;;;;21.30;93.60;;;;;;5068322;28;19971;-65
2023/05/31 05:26:28;;;;;;;;;;;21.30;93.40;;;;;;5069443;28;19962;-65
2023/05/31 05:28:55;;;;;;;;;;;21.30;93.40;;;;;;5063945;28;20328;-64
2023/05/31 05:31:22;;;;;;;;;;;21.30;93.50;;;;;;5052152;28;19909;-64
2023/05/31 05:33:50;;;;;;;;;;;21.20;93.60;;;;;;5055637;28;19963;-62
2023/05/31 05:36:17;;;;;;;;;;;21.20;93.70;;;;;;5069979;28;20405;-67
2023/05/31 05:38:44;;;;;;;;;;;21.10;93.90;;;;;;5055413;28;19917;-64
2023/05/31 05:41:12;;;;;;;;;;;21.10;94.20;;;;;;5052411;28;20441;-64
2023/05/31 05:43:39;;;;;;;;;;;21.00;94.40;;;;;;5058240;28;19916;-64
2023/05/31 05:46:06;;;;;;;;;;;20.90;94.60;;;;;;5062185;28;20297;-65
2023/05/31 05:48:33;;;;;;;;;;;20.90;94.90;;;;;;5060088;28;19913;-62
2023/05/31 05:51:04;;;;;;;;;;;20.80;95.10;;;;;;5059368;28;20358;-64
2023/05/31 05:53:31;;;;;;;;;;;21.00;95.40;;;;;;5059705;28;20320;-64
2023/05/31 05:55:57;;;;;;;;;;;21.30;94.90;;;;;;5059953;28;19956;-64
2023/05/31 05:58:24;;;;;;;;;;;21.50;95.00;;;;;;5060285;28;19912;-65
2023/05/31 06:00:50;;;;;;;;;;;21.80;93.70;;;;;;5059877;28;19913;-65
2023/05/31 06:03:17;;;;;;;;;;;22.00;93.60;;;;;;5060408;28;19913;-65
2023/05/31 06:05:44;;;;;;;;;;;22.30;93.30;;;;;;5059013;28;19931;-67
2023/05/31 06:08:11;;;;;;;;;;;22.30;92.80;;;;;;5060636;28;19916;-66
2023/05/31 06:10:41;;;;;;;;;;;22.30;92.20;;;;;;5067435;28;19917;-65
2023/05/31 06:13:08;;;;;;;;;;;22.10;92.30;;;;;;5060226;28;19986;-64
2023/05/31 06:15:35;;;;;;;;;;;21.80;92.60;;;;;;5057714;28;19908;-64
2023/05/31 06:18:01;;;;;;;;;;;21.60;92.90;;;;;;5055508;28;20248;-65
2023/05/31 06:20:28;;;;;;;;;;;21.20;93.30;;;;;;5059161;28;19924;-64
2023/05/31 06:22:56;;;;;;;;;;;20.90;93.70;;;;;;5059808;28;19909;-66
2023/05/31 06:25:23;;;;;;;;;;;20.70;94.10;;;;;;5061806;28;20381;-65
2023/05/31 06:27:50;;;;;;;;;;;20.40;94.50;;;;;;5057786;28;19931;-66
2023/05/31 06:30:17;;;;;;;;;;;20.20;94.80;;;;;;5057720;28;20420;-64
2023/05/31 06:32:44;;;;;;;;;;;20.00;95.10;;;;;;5059395;28;19995;-63
2023/05/31 06:35:11;;;;;;;;;;;19.80;95.40;;;;;;5057925;28;19913;-64
2023/05/31 06:37:39;;;;;;;;;;;19.70;95.80;;;;;;5059278;28;19945;-64
2023/05/31 06:40:07;;;;;;;;;;;19.50;96.70;;;;;;5060927;28;19917;-67
2023/05/31 06:42:34;;;;;;;;;;;19.30;97.00;;;;;;5059474;28;20392;-63
2023/05/31 06:45:01;;;;;;;;;;;19.10;97.50;;;;;;5056460;28;19908;-65
2023/05/31 06:47:27;;;;;;;;;;;19.00;98.00;;;;;;5058947;28;19927;-64
2023/05/31 06:49:54;;;;;;;;;;;18.80;98.40;;;;;;5062715;28;19915;-64
2023/05/31 06:52:21;;;;;;;;;;;18.70;98.50;;;;;;5075636;28;19924;-64
2023/05/31 06:54:51;;;;;;;;;;;18.50;98.70;;;;;;5057766;28;19909;-65
2023/05/31 06:57:17;;;;;;;;;;;18.40;99.30;;;;;;5059535;28;20056;-63
2023/05/31 06:59:44;;;;;;;;;;;18.30;99.80;;;;;;5057976;28;19952;-62
2023/05/31 07:02:11;;;;;;;;;;;18.20;99.90;;;;;;5061473;28;19912;-62
2023/05/31 07:04:37;;;;;;;;;;;18.20;99.90;;;;;;5057446;28;20290;-62
2023/05/31 07:07:05;;;;;;;;;;;18.00;99.90;;;;;;5057184;28;20003;-64
2023/05/31 07:09:31;;;;;;;;;;;18.00;99.90;;;;;;5059732;28;20016;-63
2023/05/31 07:11:58;;;;;;;;;;;17.90;99.90;;;;;;5060951;28;20457;-64
2023/05/31 07:14:24;;;;;;;;;;;17.90;99.90;;;;;;5065488;28;19916;-63
2023/05/31 07:16:51;;;;;;;;;;;17.80;99.90;;;;;;5074796;28;19912;-63
2023/05/31 07:19:18;;;;;;;;;;;17.80;99.90;;;;;;5063848;28;19954;-62
2023/05/31 07:21:44;;;;;;;;;;;17.60;99.90;;;;;;5066973;28;19920;-64
2023/05/31 07:24:11;;;;;;;;;;;17.60;99.90;;;;;;5057604;28;19924;-66
2023/05/31 07:26:37;;;;;;;;;;;17.50;99.90;;;;;;5053654;28;19916;-64
2023/05/31 07:29:04;;;;;;;;;;;17.50;99.90;;;;;;5055039;28;19920;-63
2023/05/31 07:31:31;;;;;;;;;;;17.40;99.90;;;;;;5059938;28;19917;-65
2023/05/31 07:33:58;;;;;;;;;;;17.40;99.90;;;;;;5054050;28;19925;-66
2023/05/31 07:36:25;;;;;;;;;;;17.30;99.90;;;;;;5056651;28;19913;-66
2023/05/31 07:38:55;;;;;;;;;;;17.30;99.90;;;;;;5061634;28;19908;-68
2023/05/31 07:41:21;;;;;;;;;;;17.20;99.90;;;;;;5072370;28;19909;-65
2023/05/31 07:43:48;;;;;;;;;;;17.20;99.90;;;;;;5069849;28;19944;-63
2023/05/31 07:46:15;;;;;;;;;;;17.10;99.90;;;;;;5074470;28;19974;-64
2023/05/31 07:48:41;;;;;;;;;;;17.10;99.90;;;;;;5074481;28;19908;-64
2023/05/31 07:51:08;;;;;;;;;;;17.10;99.90;;;;;;5074173;28;19960;-66
2023/05/31 07:53:34;;;;;;;;;;;17.00;99.90;;;;;;5073491;28;19920;-67
2023/05/31 07:56:01;;;;;;;;;;;17.00;99.90;;;;;;5074062;28;20327;-64
2023/05/31 07:58:28;;;;;;;;;;;16.90;99.90;;;;;;5073711;28;19909;-65
2023/05/31 08:00:55;;;;;;;;;;;16.90;99.90;;;;;;5074043;28;19909;-64
2023/05/31 08:03:21;;;;;;;;;;;16.80;99.90;;;;;;5073067;28;19912;-66
2023/05/31 08:05:49;;;;;;;;;;;16.80;99.90;;;;;;5074338;28;19920;-65
2023/05/31 08:08:16;;;;;;;;;;;16.80;99.90;;;;;;5063287;28;19917;-66
2023/05/31 08:10:42;;;;;;;;;;;16.80;99.90;;;;;;5067196;28;19912;-64
2023/05/31 08:13:09;;;;;;;;;;;16.70;99.90;;;;;;5059173;28;19966;-65
2023/05/31 08:15:36;;;;;;;;;;;16.70;99.90;;;;;;5070514;28;19928;-68
2023/05/31 08:18:03;;;;;;;;;;;16.60;99.90;;;;;;5060789;28;19955;-64
2023/05/31 08:20:29;;;;;;;;;;;16.60;99.90;;;;;;5068564;28;19952;-64
2023/05/31 08:22:56;;;;;;;;;;;16.60;99.90;;;;;;5055572;28;19962;-65
2023/05/31 08:25:23;;;;;;;;;;;16.60;99.90;;;;;;5052788;28;20320;-64
2023/05/31 08:27:50;;;;;;;;;;;16.50;99.90;;;;;;5056528;28;20381;-66
2023/05/31 08:30:17;;;;;;;;;;;16.40;99.90;;;;;;5073524;28;19957;-63
2023/05/31 08:32:43;;;;;;;;;;;16.30;99.90;;;;;;5073934;28;19917;-64
2023/05/31 08:35:10;;;;;;;;;;;16.30;99.90;;;;;;5058182;28;19936;-67
2023/05/31 08:37:37;;;;;;;;;;;16.20;99.90;;;;;;5053853;28;19920;-66
2023/05/31 08:40:07;;;;;;;;;;;16.10;99.90;;;;;;5072864;28;19908;-64
2023/05/31 08:42:39;;;;;;;;;;;16.10;99.90;;;;;;5073323;28;19913;-64
2023/05/31 08:45:08;;;;;;;;;;;16.10;99.90;;;;;;5073205;28;19944;-65
2023/05/31 08:47:45;;;;;;;;;;;16.10;99.90;;;;;;5072756;28;19909;-66
2023/05/31 08:50:12;;;;;;;;;;;16.00;99.90;;;;;;5071060;28;19919;-63
2023/05/31 08:52:39;;;;;;;;;;;16.00;99.90;;;;;;5073131;28;19928;-64
2023/05/31 08:55:06;;;;;;;;;;;15.90;99.90;;;;;;5058589;22;19932;-67
2023/05/31 08:57:33;;;;;;;;;;;16.00;99.90;;;;;;5033180;28;19995;-67
2023/05/31 09:00:07;;;;;;;;;;;15.90;99.90;;;;;;5031799;28;20268;-67
2023/05/31 09:02:34;;;;;;;;;;;15.90;99.90;;;;;;5033019;28;20356;-66
2023/05/31 09:05:01;;;;;;;;;;;15.90;99.90;;;;;;5033481;28;20385;-67
2023/05/31 09:07:28;;;;;;;;;;;15.80;99.90;;;;;;5033470;28;19909;-65
2023/05/31 09:09:54;;;;;;;;;;;15.90;99.90;;;;;;5032208;28;20024;-65
2023/05/31 09:12:21;;;;;;;;;;;15.80;99.90;;;;;;5032998;28;19940;-67
2023/05/31 09:14:48;;;;;;;;;;;15.80;99.90;;;;;;5032677;28;19909;-68
2023/05/31 09:17:17;;;;;;;;;;;15.80;99.90;;;;;;5032345;28;20016;-68
2023/05/31 09:19:51;;;;;;;;;;;15.90;99.90;;;;;;5032843;28;19920;-67
2023/05/31 09:22:17;;;;;;;;;;;15.80;99.90;;;;;;5032775;28;19914;-69
2023/05/31 09:24:57;;;;;;;;;;;15.80;99.90;;;;;;5033694;28;19909;-68
2023/05/31 09:27:24;;;;;;;;;;;15.80;99.90;;;;;;5032119;28;19917;-67
2023/05/31 09:29:54;;;;;;;;;;;15.80;99.90;;;;;;5031210;28;20324;-68
2023/05/31 09:32:21;;;;;;;;;;;15.80;99.90;;;;;;5032101;28;19917;-67
2023/05/31 09:34:48;;;;;;;;;;;15.90;99.90;;;;;;5030686;28;19917;-67
2023/05/31 09:37:24;;;;;;;;;;;15.90;99.90;;;;;;5033055;28;19917;-65
2023/05/31 09:39:54;;;;;;;;;;;15.80;99.90;;;;;;5026794;28;20009;-67
2023/05/31 09:42:21;;;;;;;;;;;15.80;99.90;;;;;;5032927;28;19913;-67
2023/05/31 09:44:48;;;;;;;;;;;15.90;99.90;;;;;;5031478;28;19917;-66
2023/05/31 09:47:15;;;;;;;;;;;15.80;99.90;;;;;;5033079;28;19956;-68
2023/05/31 09:49:45;;;;;;;;;;;15.80;99.90;;;;;;5033454;28;19917;-67
2023/05/31 09:52:13;;;;;;;;;;;15.70;99.90;;;;;;5032364;28;19916;-64
2023/05/31 09:54:40;;;;;;;;;;;15.70;99.90;;;;;;5030097;28;20408;-67
2023/05/31 09:57:06;;;;;;;;;;;15.70;99.90;;;;;;5032659;28;19909;-67
2023/05/31 09:59:33;;;;;;;;;;;15.70;99.90;;;;;;5030989;28;20393;-68
2023/05/31 10:02:00;;;;;;;;;;;15.70;99.90;;;;;;5032431;28;19920;-68
2023/05/31 10:04:27;;;;;;;;;;;15.70;99.90;;;;;;5031543;28;19964;-68
2023/05/31 10:06:54;;;;;;;;;;;15.70;99.90;;;;;;5031550;28;19917;-66
2023/05/31 10:09:21;;;;;;;;;;;15.70;99.90;;;;;;5031807;28;19909;-66
2023/05/31 10:11:51;;;;;;;;;;;15.70;99.90;;;;;;5032344;28;19913;-66
2023/05/31 10:14:21;;;;;;;;;;;15.70;99.90;;;;;;5031564;28;19917;-65
2023/05/31 10:16:53;;;;;;;;;;;15.90;99.90;;;;;;5031966;28;19921;-67
2023/05/31 10:19:24;;;;;;;;;;;15.70;99.90;;;;;;5032252;28;19913;-66
2023/05/31 10:21:50;;;;;;;;;;;15.60;99.90;;;;;;5033471;28;19948;-67
2023/05/31 10:24:20;;;;;;;;;;;15.60;99.90;;;;;;5034165;28;20342;-67
2023/05/31 10:26:56;;;;;;;;;;;15.70;99.90;;;;;;5031414;28;19959;-67
2023/05/31 10:29:27;;;;;;;;;;;15.60;99.90;;;;;;5031464;28;19913;-66
2023/05/31 10:31:55;;;;;;;;;;;15.60;99.90;;;;;;5029922;28;19932;-66
2023/05/31 10:34:23;;;;;;;;;;;15.60;99.90;;;;;;5031574;28;19917;-67
2023/05/31 10:36:51;;;;;;;;;;;15.60;99.90;;;;;;5028405;28;19913;-68
2023/05/31 10:39:38;;;;;;;;;;;15.60;99.90;;;;;;5031222;28;19956;-68
2023/05/31 10:42:31;;;;;;;;;;;15.50;99.90;;;;;;5027297;28;19962;-68
2023/05/31 10:45:16;;;;;;;;;;;15.50;99.90;;;;;;5009015;28;19918;-69
2023/05/31 10:48:00;;;;;;;;;;;15.50;99.90;;;;;;5027561;28;19968;-68
2023/05/31 10:50:27;;;;;;;;;;;15.40;99.90;;;;;;5028971;28;20362;-66
2023/05/31 10:53:08;;;;;;;;;;;15.40;99.90;;;;;;5031499;28;19917;-66
2023/05/31 10:55:41;;;;;;;;;;;15.30;99.90;;;;;;5015438;28;19967;-64
2023/05/31 10:58:23;;;;;;;;;;;15.40;99.90;;;;;;5031945;28;19913;-65
2023/05/31 11:00:52;;;;;;;;;;;15.30;99.90;;;;;;5031843;28;20339;-66
2023/05/31 11:03:21;;;;;;;;;;;15.20;99.90;;;;;;5031453;28;19941;-66
2023/05/31 11:05:55;;;;;;;;;;;15.10;99.90;;;;;;5031926;28;20277;-67
2023/05/31 11:08:22;;;;;;;;;;;15.10;99.90;;;;;;5031618;28;19960;-67
2023/05/31 11:10:48;;;;;;;;;;;15.10;99.90;;;;;;5031654;28;19913;-66
2023/05/31 11:13:15;;;;;;;;;;;15.10;99.90;;;;;;5031037;28;20328;-67
2023/05/31 11:15:42;;;;;;;;;;;15.10;99.90;;;;;;5029922;28;20429;-66
2023/05/31 11:18:09;;;;;;;;;;;15.10;99.90;;;;;;5031143;28;20328;-67
2023/05/31 11:20:36;;;;;;;;;;;15.10;99.90;;;;;;5031912;28;19988;-68
2023/05/31 11:23:30;;;;;;;;;;;15.10;99.90;;;;;;5032342;28;19920;-62
2023/05/31 11:26:15;;;;;;;;;;;15.10;99.90;;;;;;5028067;28;19957;-65
2023/05/31 11:28:56;;;;;;;;;;;15.10;99.90;;;;;;5031692;28;19913;-66
2023/05/31 11:31:40;;;;;;;;;;;15.10;99.90;;;;;;5032172;28;19917;-64
2023/05/31 11:34:24;;;;;;;;;;;15.10;99.90;;;;;;5031966;28;20378;-64
2023/05/31 11:36:50;;;;;;;;;;;15.10;99.90;;;;;;5032076;28;19955;-66
2023/05/31 11:39:18;;;;;;;;;;;15.10;99.90;;;;;;5031480;28;19914;-63
2023/05/31 11:41:44;;;;;;;;;;;15.00;99.90;;;;;;5031555;28;19912;-66
2023/05/31 11:44:12;;;;;;;;;;;15.10;99.90;;;;;;5031428;28;19935;-63
2023/05/31 11:46:44;;;;;;;;;;;15.00;99.90;;;;;;5031762;28;19909;-64
2023/05/31 11:49:11;;;;;;;;;;;15.00;99.90;;;;;;5032214;28;19963;-61
2023/05/31 11:51:41;;;;;;;;;;;15.10;99.90;;;;;;5031634;28;19956;-65
2023/05/31 11:54:08;;;;;;;;;;;15.00;99.90;;;;;;5032168;28;19921;-67
2023/05/31 11:56:36;;;;;;;;;;;15.00;99.90;;;;;;5031933;28;19913;-65
2023/05/31 11:59:03;;;;;;;;;;;15.10;99.90;;;;;;5033172;28;19910;-67
2023/05/31 12:01:41;;;;;;;;;;;15.00;99.90;;;;;;5035108;28;19920;-67
2023/05/31 12:04:08;;;;;;;;;;;15.00;99.90;;;;;;5034407;28;19920;-63
2023/05/31 12:06:35;;;;;;;;;;;15.00;99.90;;;;;;5035611;28;19909;-63
2023/05/31 12:09:02;;;;;;;;;;;14.90;99.90;;;;;;5035569;28;19932;-63
2023/05/31 12:11:29;;;;;;;;;;;14.90;99.90;;;;;;5035215;28;19913;-62
2023/05/31 12:13:56;;;;;;;;;;;14.90;99.90;;;;;;5035645;28;19971;-62
2023/05/31 12:16:22;;;;;;;;;;;14.90;99.90;;;;;;5034838;28;19918;-66
2023/05/31 12:18:50;;;;;;;;;;;14.80;99.90;;;;;;5035486;28;20385;-67
2023/05/31 12:21:16;;;;;;;;;;;14.80;99.90;;;;;;5035572;28;19916;-66
2023/05/31 12:23:53;;;;;;;;;;;14.90;99.90;;;;;;5035106;28;19920;-67
2023/05/31 12:26:21;;;;;;;;;;;14.80;99.90;;;;;;5035319;28;19913;-67
2023/05/31 12:28:48;;;;;;;;;;;14.80;99.90;;;;;;5034016;28;19913;-65
2023/05/31 12:31:22;;;;;;;;;;;14.80;99.90;;;;;;5034216;28;19920;-69
2023/05/31 12:33:58;;;;;;;;;;;14.80;99.90;;;;;;5035080;28;20362;-68
2023/05/31 12:36:26;;;;;;;;;;;14.80;99.90;;;;;;5024484;28;19980;-67
2023/05/31 12:38:59;;;;;;;;;;;14.80;99.90;;;;;;5035280;28;19982;-68
2023/05/31 12:41:26;;;;;;;;;;;14.80;99.90;;;;;;5034708;28;19913;-65
2023/05/31 12:43:54;;;;;;;;;;;14.80;99.90;;;;;;5035096;28;19940;-69
2023/05/31 12:46:20;;;;;;;;;;;14.80;99.90;;;;;;5034789;28;19909;-67
2023/05/31 12:48:48;;;;;;;;;;;14.70;99.90;;;;;;5034125;28;19917;-70
2023/05/31 12:51:20;;;;;;;;;;;14.70;99.90;;;;;;5034963;28;19945;-68
2023/05/31 12:53:47;;;;;;;;;;;14.60;99.90;;;;;;5034514;28;20026;-64
2023/05/31 12:56:14;;;;;;;;;;;14.70;99.90;;;;;;5034851;28;20003;-67
2023/05/31 12:58:40;;;;;;;;;;;14.60;99.90;;;;;;5034739;28;19910;-68
2023/05/31 13:01:07;;;;;;;;;;;14.60;99.90;;;;;;5034583;28;20278;-67
2023/05/31 13:03:34;;;;;;;;;;;14.60;99.90;;;;;;5034494;28;19917;-67
2023/05/31 13:06:01;;;;;;;;;;;14.60;99.90;;;;;;5034570;28;20358;-69
2023/05/31 13:08:28;;;;;;;;;;;14.60;99.90;;;;;;5034917;28;20362;-69
2023/05/31 13:10:54;;;;;;;;;;;14.60;99.90;;;;;;5034134;28;19909;-69
2023/05/31 13:13:21;;;;;;;;;;;14.60;99.90;;;;;;5034088;28;20362;-67
2023/05/31 13:15:47;;;;;;;;;;;14.50;99.90;;;;;;5034564;28;19920;-68
2023/05/31 13:18:14;;;;;;;;;;;14.50;99.90;;;;;;5033936;28;19910;-69
2023/05/31 13:20:41;;;;;;;;;;;14.50;99.90;;;;;;5034007;28;19913;-68
2023/05/31 13:23:08;;;;;;;;;;;14.50;99.90;;;;;;5033917;28;19910;-62
2023/05/31 13:25:35;;;;;;;;;;;14.50;99.90;;;;;;5033947;28;19920;-67
2023/05/31 13:28:01;;;;;;;;;;;14.30;99.90;;;;;;5034388;28;20076;-67
2023/05/31 13:30:28;;;;;;;;;;;14.30;99.90;;;;;;5034016;28;19916;-68
2023/05/31 13:32:55;;;;;;;;;;;14.30;99.90;;;;;;5034052;28;19936;-68
2023/05/31 13:35:21;;;;;;;;;;;14.20;99.90;;;;;;5033607;28;19909;-64
2023/05/31 13:37:48;;;;;;;;;;;14.20;99.90;;;;;;5033976;28;19920;-66
2023/05/31 13:40:15;;;;;;;;;;;14.20;99.90;;;;;;5034027;28;19929;-67
2023/05/31 13:42:41;;;;;;;;;;;14.10;99.90;;;;;;5033735;28;19916;-68
2023/05/31 13:45:08;;;;;;;;;;;14.00;99.90;;;;;;5033901;28;19951;-68
2023/05/31 13:47:36;;;;;;;;;;;14.00;99.90;;;;;;5033699;28;19957;-68
2023/05/31 13:50:03;;;;;;;;;;;14.00;99.90;;;;;;5033820;28;20000;-68
2023/05/31 13:52:29;;;;;;;;;;;14.00;99.90;;;;;;5033941;28;19917;-70
2023/05/31 13:54:56;;;;;;;;;;;13.90;99.90;;;;;;5033662;28;19924;-63
2023/05/31 13:57:22;;;;;;;;;;;13.90;99.90;;;;;;5033550;28;19931;-66
2023/05/31 13:59:49;;;;;;;;;;;13.80;99.90;;;;;;5033300;28;19919;-67
2023/05/31 14:02:16;;;;;;;;;;;13.80;99.90;;;;;;5033672;28;20007;-68
2023/05/31 14:04:43;;;;;;;;;;;13.70;99.90;;;;;;5033431;28;20334;-66
2023/05/31 14:07:10;;;;;;;;;;;13.70;99.90;;;;;;5033201;28;19909;-67
2023/05/31 14:09:38;;;;;;;;;;;13.70;99.90;;;;;;5032721;28;19921;-70
2023/05/31 14:12:05;;;;;;;;;;;13.70;99.90;;;;;;5033009;28;19971;-69
2023/05/31 14:14:32;;;;;;;;;;;13.60;99.90;;;;;;5033171;28;20359;-69
2023/05/31 14:16:59;;;;;;;;;;;13.60;99.90;;;;;;5033217;28;19963;-69
2023/05/31 14:19:26;;;;;;;;;;;13.70;99.90;;;;;;5033226;28;19920;-68
2023/05/31 14:21:53;;;;;;;;;;;13.60;99.90;;;;;;5032904;28;19913;-69